12:44
Airports
History
Links
Donate
Help keep this website running!
PayPal
Bitcoin
Information on this page is community maintained and may be outdated or inaccurate and is intended for reference only or PC simulator navigating.
Always use approved charts for navigating.
SJQT
Fazenda Haras RPC
Fazenda Haras RPC (SJQT)
Nova Lima, Minas Gerais, Brazil (34000)
4
Lat/Lng:20° 10' 7" S / 43° 55' 37" W
-20.168611 / -43.926944
Elevation:4209'ft 1283mMSL
ID / ICAO:SJQT
Runways:1
Longest:(16-34) 692.0m 2,270ft Grass
Distance To
Airport ID:
Nearby WeatherUpdated 07-27-17 12:00 GMT
Nearby weather at SBBH, Pampulha located 22.0 nautical miles from SJQT
Altimeter: 30.33
Visibility: 6.2 statute miles
Wind: 5 knots (080°)
Temp: 18°c 64°f
Humidity: 59.5%

METAR: SBBH 271200Z 08005KT 9999 FEW027 18/10 Q1027

(Powered by phpweather)
Runway 16 / 34
Dimensions:692 x 21m 2270' x 69'ft
Surface:Grass
Runway 16 [A]Runway 34 [B]
Heading:139°TH 319°TH
Lat:
Lng:
20° 9' 58.42"S
43° 55' 44.76"W
20° 10' 15.58"S
43° 55' 29.24"W
User Notes and Comments
Google Map
Nearby Airports
(U) CARLOS PRATES 18.4 NM
SBPR NNW 346°
(C) Pampulha 22.0 NM
SBBH (WX) N 355°
(C) LAGOA SANTA 35.1 NM
SBLS N
(C) Tancredo Neves 37.1 NM
SBCF (WX) N 355°
(U) Conselheiro Lafaiete 40.3 NM
SNKF SSE 168°
4 Fazenda das Perobas 48.4 NM
SWJX NNW 341°
(C) Para De Minas 49.2 NM
SNPA WNW 297°
VFR Chart
Flight Planning at SkyVector.com